Time;durP1;ratioP1;P1;durP2;ratioP2;P2;SDS_P1;SDS_P2;PMS_P1;PMS_P2;Temp;Humidity;BMP_temperature;BMP_pressure;BME280_temperature;BME280_humidity;BME280_pressure;Samples;Min_cycle;Max_cycle;Signal;HPM_P1;HPM_P2
2021/12/08 00:00:35;;;;;;;3.13;1.10;;;20.60;45.80;;;;;;4972272;28;20050;-60
2021/12/08 00:03:03;;;;;;;2.63;0.95;;;20.60;45.80;;;;;;4953385;28;20046;-60
2021/12/08 00:05:29;;;;;;;2.70;1.20;;;20.50;45.70;;;;;;4973190;28;20078;-59
2021/12/08 00:07:56;;;;;;;2.20;1.10;;;20.50;45.70;;;;;;4954834;28;20117;-60
2021/12/08 00:13:04;;;;;;;1.63;1.00;;;20.50;45.60;;;;;;4951249;28;20054;-59
2021/12/08 00:15:35;;;;;;;1.77;1.02;;;20.50;45.60;;;;;;4972071;28;20563;-59
2021/12/08 00:18:01;;;;;;;2.45;1.15;;;20.50;45.60;;;;;;4953685;28;20108;-59
2021/12/08 00:20:31;;;;;;;2.58;1.00;;;20.50;45.50;;;;;;4972668;28;20054;-59
2021/12/08 00:22:57;;;;;;;2.67;0.93;;;20.50;45.50;;;;;;4953968;28;20046;-59
2021/12/08 00:25:22;;;;;;;2.38;1.23;;;20.50;45.50;;;;;;4970861;28;20755;-59
2021/12/08 00:27:49;;;;;;;4.63;1.27;;;20.50;45.50;;;;;;4954322;28;20129;-59
2021/12/08 00:30:16;;;;;;;2.35;1.15;;;20.50;45.40;;;;;;4974327;28;21029;-59
2021/12/08 00:32:42;;;;;;;2.95;1.30;;;20.50;45.40;;;;;;4954262;28;20046;-59
2021/12/08 00:35:08;;;;;;;3.20;1.00;;;20.50;45.40;;;;;;4973593;28;20069;-60
2021/12/08 00:37:34;;;;;;;1.77;1.08;;;20.50;45.30;;;;;;4952982;28;20521;-58
2021/12/08 00:40:00;;;;;;;2.67;1.10;;;20.50;45.30;;;;;;4986023;28;20043;-59
2021/12/08 00:42:26;;;;;;;2.00;0.90;;;20.50;45.30;;;;;;4969751;28;20531;-59
2021/12/08 00:44:52;;;;;;;2.17;1.10;;;20.50;45.30;;;;;;4956227;28;20053;-59
2021/12/08 00:47:18;;;;;;;2.10;0.85;;;20.50;45.30;;;;;;4971307;28;20050;-59
2021/12/08 00:49:46;;;;;;;1.85;1.15;;;20.50;45.30;;;;;;4954197;28;20046;-59
2021/12/08 00:52:13;;;;;;;2.83;1.05;;;20.40;45.20;;;;;;4972945;28;20592;-60
2021/12/08 00:54:40;;;;;;;1.95;0.82;;;20.40;45.20;;;;;;4954340;28;20046;-59
2021/12/08 00:57:06;;;;;;;3.08;1.08;;;20.40;45.10;;;;;;4971410;28;20034;-59
2021/12/08 00:59:31;;;;;;;2.92;1.00;;;20.40;45.30;;;;;;4953708;28;20051;-59
2021/12/08 01:02:02;;;;;;;2.85;1.23;;;20.40;45.20;;;;;;4972517;28;20037;-57
2021/12/08 01:04:29;;;;;;;2.70;1.30;;;20.40;45.20;;;;;;4953069;28;20059;-59
2021/12/08 01:06:54;;;;;;;2.63;1.27;;;20.40;45.20;;;;;;4971119;28;20096;-59
2021/12/08 01:09:20;;;;;;;1.80;1.00;;;20.40;45.10;;;;;;4952254;28;20687;-59
2021/12/08 01:11:47;;;;;;;1.55;1.00;;;20.40;45.10;;;;;;4969069;28;20050;-59
2021/12/08 01:14:15;;;;;;;2.97;1.30;;;20.40;45.10;;;;;;4958231;28;20050;-58
2021/12/08 01:16:41;;;;;;;2.30;1.00;;;20.40;45.20;;;;;;4971144;28;20051;-60
2021/12/08 01:19:07;;;;;;;2.75;1.08;;;20.40;45.10;;;;;;4972138;28;20401;-59
2021/12/08 01:21:32;;;;;;;2.55;1.10;;;20.40;45.10;;;;;;4950721;28;20042;-57
2021/12/08 01:23:59;;;;;;;2.83;1.00;;;20.40;45.20;;;;;;4971502;28;20072;-59
2021/12/08 01:26:26;;;;;;;1.63;0.90;;;20.40;45.10;;;;;;4956497;28;20058;-59
2021/12/08 01:28:55;;;;;;;2.83;1.20;;;20.40;45.00;;;;;;4972227;28;20117;-59
2021/12/08 01:31:21;;;;;;;2.53;0.90;;;20.40;45.10;;;;;;4952906;28;20153;-59
2021/12/08 01:33:47;;;;;;;1.83;0.80;;;20.40;45.10;;;;;;4970629;28;20054;-58
2021/12/08 01:36:12;;;;;;;1.15;0.80;;;20.30;45.00;;;;;;4948947;28;20410;-59
2021/12/08 01:38:38;;;;;;;2.75;0.90;;;20.30;45.00;;;;;;4971448;28;20051;-59
2021/12/08 01:41:04;;;;;;;4.18;1.02;;;20.30;45.00;;;;;;4953336;28;20047;-59
2021/12/08 01:43:41;;;;;;;5.63;1.00;;;20.30;45.00;;;;;;4970328;28;20061;-59
2021/12/08 01:46:10;;;;;;;1.50;1.05;;;20.30;45.00;;;;;;4951182;28;20042;-59
2021/12/08 01:48:39;;;;;;;1.40;0.80;;;20.30;45.80;;;;;;4971964;28;20050;-59
2021/12/08 01:51:10;;;;;;;2.05;1.17;;;20.30;45.00;;;;;;4952704;28;21251;-57
2021/12/08 01:53:38;;;;;;;1.23;0.73;;;20.30;45.10;;;;;;4971373;28;20069;-59
2021/12/08 01:56:04;;;;;;;3.97;1.00;;;20.30;45.00;;;;;;4953926;28;20056;-57
2021/12/08 01:58:30;;;;;;;2.15;0.93;;;20.30;45.00;;;;;;4970569;28;20522;-57
2021/12/08 02:01:00;;;;;;;3.58;1.00;;;20.30;45.10;;;;;;4972395;28;20057;-58
2021/12/08 02:03:27;;;;;;;1.57;1.07;;;20.30;45.00;;;;;;4955582;28;20169;-59
2021/12/08 02:05:53;;;;;;;1.73;0.75;;;20.30;45.10;;;;;;4966837;28;20687;-59
2021/12/08 02:08:20;;;;;;;3.63;1.20;;;20.20;45.00;;;;;;4954293;28;20104;-59
2021/12/08 02:10:46;;;;;;;2.30;0.90;;;20.30;45.00;;;;;;4975075;28;20068;-59
2021/12/08 02:13:12;;;;;;;0.80;0.80;;;20.20;44.90;;;;;;4937614;28;20169;-58
2021/12/08 02:15:39;;;;;;;3.03;0.93;;;20.30;45.00;;;;;;4975042;28;20053;-57
2021/12/08 02:18:07;;;;;;;3.75;0.98;;;20.30;45.00;;;;;;4954443;28;20085;-59
2021/12/08 02:20:33;;;;;;;1.92;0.73;;;20.30;45.00;;;;;;4974478;28;20058;-59
2021/12/08 02:22:59;;;;;;;2.97;1.08;;;20.30;45.10;;;;;;4955456;28;20113;-58
2021/12/08 02:25:27;;;;;;;1.58;0.73;;;20.20;45.00;;;;;;4973095;28;20054;-59
2021/12/08 02:27:55;;;;;;;3.38;1.17;;;20.20;45.00;;;;;;4956832;28;20172;-60
2021/12/08 02:47:13;;;;;;;1.40;0.80;;;20.20;45.50;;;;;;4972561;28;20054;-58
2021/12/08 02:49:39;;;;;;;3.88;1.13;;;20.20;45.60;;;;;;4951946;28;20054;-57
2021/12/08 02:52:08;;;;;;;3.88;1.13;;;20.20;45.60;;;;;;4974130;28;20092;-57
2021/12/08 02:54:46;;;;;;;3.78;1.30;;;20.20;45.70;;;;;;4952645;28;20520;-58
2021/12/08 02:57:13;;;;;;;5.10;1.38;;;20.10;45.70;;;;;;4974072;28;20674;-59
2021/12/08 02:59:41;;;;;;;5.20;1.20;;;20.20;45.70;;;;;;4953764;28;20062;-60
2021/12/08 03:02:07;;;;;;;4.32;1.52;;;20.10;45.60;;;;;;4965917;28;20068;-59
2021/12/08 03:04:33;;;;;;;3.92;1.00;;;20.10;45.60;;;;;;4951963;28;20047;-59
2021/12/08 03:06:59;;;;;;;2.90;1.02;;;20.10;45.60;;;;;;4972255;28;20042;-59
2021/12/08 03:09:25;;;;;;;4.45;1.10;;;20.20;45.70;;;;;;4952761;28;20042;-57
2021/12/08 03:11:53;;;;;;;5.68;1.20;;;20.10;45.60;;;;;;4973612;28;20144;-60
2021/12/08 03:14:19;;;;;;;4.22;1.02;;;20.10;45.70;;;;;;4973152;28;20081;-59
2021/12/08 03:16:50;;;;;;;3.17;1.10;;;20.10;45.70;;;;;;4955057;28;20205;-57
2021/12/08 03:19:17;;;;;;;3.70;1.00;;;20.10;45.60;;;;;;4974991;28;20116;-57
2021/12/08 03:21:43;;;;;;;5.57;1.10;;;20.10;45.60;;;;;;4952692;28;20058;-59
2021/12/08 03:24:24;;;;;;;6.10;1.38;;;20.10;46.40;;;;;;4974849;28;20085;-60
2021/12/08 03:27:05;;;;;;;6.40;1.33;;;20.10;45.60;;;;;;4955581;28;20084;-59
2021/12/08 03:29:46;;;;;;;8.95;1.40;;;20.10;45.60;;;;;;4969600;28;20050;-58
2021/12/08 03:32:16;;;;;;;6.97;1.05;;;20.10;45.70;;;;;;4953228;28;20047;-58
2021/12/08 03:34:51;;;;;;;5.95;1.35;;;20.10;45.80;;;;;;4977413;28;20085;-59
2021/12/08 03:37:21;;;;;;;3.30;1.38;;;20.10;45.70;;;;;;4955578;28;20062;-60
2021/12/08 03:39:49;;;;;;;4.13;1.25;;;20.10;45.60;;;;;;4974700;28;20043;-60
2021/12/08 03:42:15;;;;;;;6.80;1.20;;;20.10;45.60;;;;;;4946912;28;20096;-59
2021/12/08 03:44:42;;;;;;;3.53;0.90;;;20.10;45.60;;;;;;4976669;28;20601;-59
2021/12/08 03:47:14;;;;;;;2.90;1.10;;;20.00;45.50;;;;;;4951688;28;20100;-59
2021/12/08 03:49:42;;;;;;;3.70;1.20;;;20.00;45.60;;;;;;4976262;28;20054;-58
2021/12/08 03:52:08;;;;;;;3.33;1.42;;;20.00;45.60;;;;;;4953561;28;20052;-59
2021/12/08 03:54:34;;;;;;;4.90;1.13;;;20.00;45.60;;;;;;4975764;28;20046;-59
2021/12/08 03:56:59;;;;;;;2.60;1.10;;;20.00;45.60;;;;;;4949213;28;20054;-60
2021/12/08 03:59:25;;;;;;;3.60;0.90;;;20.00;45.60;;;;;;4975147;28;20129;-58
2021/12/08 04:01:51;;;;;;;3.75;1.08;;;20.00;45.60;;;;;;4953179;28;20043;-60
2021/12/08 04:04:16;;;;;;;3.28;0.90;;;20.00;45.60;;;;;;4978677;28;20041;-59
2021/12/08 04:06:49;;;;;;;3.83;1.42;;;20.00;45.70;;;;;;4969409;28;20055;-59
2021/12/08 04:09:33;;;;;;;2.50;0.95;;;20.00;45.50;;;;;;4952835;28;20819;-60
2021/12/08 04:12:00;;;;;;;2.33;1.10;;;20.00;45.50;;;;;;4971467;28;20042;-59
2021/12/08 04:14:30;;;;;;;3.90;1.10;;;20.00;45.60;;;;;;4951768;28;20046;-59
2021/12/08 04:17:10;;;;;;;3.75;1.20;;;20.00;45.70;;;;;;4987702;28;20042;-59
2021/12/08 04:19:38;;;;;;;1.85;0.75;;;20.00;45.60;;;;;;4951230;28;20065;-59
2021/12/08 04:22:13;;;;;;;3.88;0.90;;;20.00;45.60;;;;;;4974745;28;20058;-60
2021/12/08 04:24:41;;;;;;;2.50;0.90;;;20.00;45.70;;;;;;4948315;28;20578;-60
2021/12/08 04:27:13;;;;;;;1.75;1.00;;;19.90;45.60;;;;;;4973304;28;20053;-58
2021/12/08 04:29:40;;;;;;;1.05;0.95;;;19.90;45.60;;;;;;4953668;28;20585;-60
2021/12/08 04:32:08;;;;;;;2.58;0.93;;;19.90;45.60;;;;;;4974134;28;20051;-59
2021/12/08 04:34:38;;;;;;;2.30;1.00;;;19.90;45.60;;;;;;4954832;28;20054;-59
2021/12/08 04:37:16;;;;;;;3.78;1.00;;;19.90;45.60;;;;;;4971790;28;20049;-59
2021/12/08 04:40:00;;;;;;;2.30;0.85;;;19.90;45.60;;;;;;4950949;28;20417;-60
2021/12/08 04:45:19;;;;;;;2.63;0.88;;;19.90;45.60;;;;;;4955985;28;20077;-59
2021/12/08 04:48:07;;;;;;;2.17;0.90;;;19.90;45.60;;;;;;4973017;28;20698;-59
2021/12/08 05:07:36;;;;;;;1.95;0.80;;;19.80;45.60;;;;;;4949706;28;20038;-59
2021/12/08 05:09:31;;;;;;;1.85;0.90;;;19.80;45.70;;;;;;4968117;28;20065;-58
2021/12/08 05:12:01;;;;;;;1.00;0.73;;;19.80;45.60;;;;;;4955223;28;20053;-60
2021/12/08 05:14:52;;;;;;;1.33;0.73;;;19.80;45.60;;;;;;4972734;28;20141;-59
2021/12/08 05:17:29;;;;;;;2.83;1.10;;;19.80;45.60;;;;;;4952736;28;20133;-58
2021/12/08 05:20:00;;;;;;;1.23;0.70;;;19.80;45.70;;;;;;4972419;28;20109;-59
2021/12/08 05:22:32;;;;;;;1.63;0.82;;;19.80;45.70;;;;;;4950956;28;20053;-59
2021/12/08 05:25:01;;;;;;;0.95;0.70;;;19.80;45.70;;;;;;4972602;28;20049;-59
2021/12/08 05:27:41;;;;;;;2.90;0.85;;;19.80;45.60;;;;;;4955413;28;20050;-59
2021/12/08 05:30:06;;;;;;;2.45;1.20;;;19.80;45.50;;;;;;4971972;28;20039;-59
2021/12/08 05:32:33;;;;;;;2.55;0.98;;;19.80;45.50;;;;;;4953034;28;21676;-60
2021/12/08 05:34:58;;;;;;;0.90;0.80;;;19.70;45.50;;;;;;4970584;28;20050;-59
2021/12/08 05:37:25;;;;;;;2.17;0.82;;;19.80;45.60;;;;;;4949882;28;20065;-59
2021/12/08 05:39:53;;;;;;;1.67;0.82;;;19.70;45.50;;;;;;4970190;28;20058;-59
2021/12/08 05:42:23;;;;;;;1.85;0.90;;;19.80;45.60;;;;;;4952633;28;20058;-59
2021/12/08 05:44:49;;;;;;;4.33;0.80;;;19.80;45.60;;;;;;4971208;28;20050;-59
2021/12/08 05:47:19;;;;;;;2.22;0.93;;;19.80;45.70;;;;;;4952611;28;20707;-59
2021/12/08 05:49:45;;;;;;;1.50;0.90;;;19.80;45.60;;;;;;4972577;28;20072;-60
2021/12/08 05:52:11;;;;;;;1.55;0.80;;;19.70;45.60;;;;;;4945673;28;20054;-58
2021/12/08 05:54:40;;;;;;;1.50;0.63;;;19.80;45.60;;;;;;4971616;28;20061;-60
2021/12/08 05:57:16;;;;;;;1.75;1.02;;;19.70;45.50;;;;;;4954928;28;20050;-59
2021/12/08 05:59:42;;;;;;;1.63;0.80;;;19.70;45.50;;;;;;4969577;28;20077;-59
2021/12/08 06:02:19;;;;;;;2.30;0.68;;;19.80;45.60;;;;;;4964425;28;20513;-58
2021/12/08 06:04:45;;;;;;;0.80;0.70;;;19.80;45.50;;;;;;4968375;28;20129;-59
2021/12/08 06:07:13;;;;;;;1.38;0.82;;;19.80;45.70;;;;;;4974645;28;20042;-58
2021/12/08 06:09:39;;;;;;;0.70;0.68;;;19.80;45.60;;;;;;4951800;28;20046;-58
2021/12/08 06:12:08;;;;;;;0.95;0.70;;;19.80;45.60;;;;;;4972891;28;20513;-59
2021/12/08 06:14:35;;;;;;;1.13;0.70;;;19.80;45.60;;;;;;4950505;28;20053;-59
2021/12/08 06:17:06;;;;;;;0.60;0.55;;;19.80;45.60;;;;;;4972856;28;20057;-57
2021/12/08 06:19:33;;;;;;;1.45;0.57;;;19.80;45.70;;;;;;4945925;28;20058;-59
2021/12/08 06:21:59;;;;;;;0.98;0.60;;;19.80;45.70;;;;;;4971957;28;20072;-58
2021/12/08 06:24:26;;;;;;;1.60;0.70;;;19.80;45.70;;;;;;4952447;28;20129;-58
2021/12/08 06:26:52;;;;;;;1.42;0.68;;;19.80;45.70;;;;;;4970220;28;20042;-58
2021/12/08 06:29:19;;;;;;;0.80;0.60;;;19.90;45.70;;;;;;4953727;28;20509;-58
2021/12/08 06:31:49;;;;;;;1.40;0.70;;;19.90;45.70;;;;;;4969908;28;21393;-58
2021/12/08 06:34:15;;;;;;;1.05;0.60;;;19.90;45.70;;;;;;4952675;28;20050;-57
2021/12/08 06:36:54;;;;;;;0.90;0.60;;;19.90;45.70;;;;;;4968964;28;20035;-58
2021/12/08 06:39:25;;;;;;;0.65;0.60;;;19.90;45.80;;;;;;4948818;28;20054;-57
2021/12/08 06:41:56;;;;;;;1.25;0.73;;;19.90;45.80;;;;;;4973093;28;20058;-59
2021/12/08 06:44:27;;;;;;;1.38;0.70;;;19.90;45.80;;;;;;4952582;28;22280;-58
2021/12/08 06:46:55;;;;;;;2.30;0.68;;;19.90;46.00;;;;;;4972048;28;20677;-58
2021/12/08 06:49:21;;;;;;;0.93;0.60;;;19.90;46.00;;;;;;4951987;28;20076;-58
2021/12/08 06:51:57;;;;;;;1.48;0.70;;;20.00;46.10;;;;;;4977967;28;20048;-58
2021/12/08 06:54:34;;;;;;;2.13;0.80;;;20.00;46.20;;;;;;4972448;28;20054;-58
2021/12/08 06:57:07;;;;;;;1.50;0.60;;;20.00;46.20;;;;;;4975490;28;20535;-58
2021/12/08 06:59:36;;;;;;;1.08;0.93;;;20.00;46.20;;;;;;4975618;28;20054;-58
2021/12/08 07:02:18;;;;;;;1.35;0.63;;;20.10;46.30;;;;;;4951186;28;20043;-59
2021/12/08 07:07:37;;;;;;;0.70;0.55;;;20.10;46.30;;;;;;4972809;28;20050;-59
2021/12/08 07:10:11;;;;;;;0.98;0.60;;;20.10;46.20;;;;;;4974667;28;20051;-59
2021/12/08 07:12:46;;;;;;;1.00;0.70;;;20.20;46.30;;;;;;4943339;28;20050;-59
2021/12/08 07:15:24;;;;;;;1.80;0.57;;;20.10;46.20;;;;;;4970391;28;20535;-59
2021/12/08 07:17:55;;;;;;;2.35;0.70;;;20.10;46.20;;;;;;4958770;28;20168;-59
2021/12/08 07:22:55;;;;;;;1.63;0.50;;;20.20;46.20;;;;;;4956117;28;20466;-59
2021/12/08 07:25:25;;;;;;;2.45;0.82;;;20.20;46.10;;;;;;4975966;28;20058;-60
2021/12/08 07:27:52;;;;;;;2.67;0.60;;;20.20;46.00;;;;;;4956300;28;20077;-58
2021/12/08 07:30:22;;;;;;;3.60;0.82;;;20.20;46.00;;;;;;4973791;28;20042;-60
2021/12/08 07:32:48;;;;;;;2.63;0.55;;;20.20;46.00;;;;;;4955814;28;20066;-59
2021/12/08 07:35:22;;;;;;;0.93;0.50;;;20.20;46.00;;;;;;4976529;28;20081;-60
2021/12/08 07:37:48;;;;;;;2.20;0.55;;;20.30;46.10;;;;;;4952138;28;20469;-59
2021/12/08 07:40:26;;;;;;;2.90;0.80;;;20.20;46.00;;;;;;4972061;28;20049;-59
2021/12/08 07:42:58;;;;;;;4.38;1.23;;;20.30;46.10;;;;;;4950045;28;20085;-59
2021/12/08 07:45:32;;;;;;;2.45;0.57;;;20.20;46.00;;;;;;4975059;28;20137;-59
2021/12/08 07:47:59;;;;;;;2.55;0.52;;;20.30;46.10;;;;;;4956279;28;20077;-59
2021/12/08 07:50:34;;;;;;;1.85;0.68;;;20.20;46.00;;;;;;4974224;28;20046;-60
2021/12/08 07:53:01;;;;;;;2.58;0.80;;;20.20;46.00;;;;;;4966027;28;20754;-60
2021/12/08 07:55:33;;;;;;;0.90;0.52;;;20.30;46.20;;;;;;4973868;28;20047;-59
2021/12/08 07:58:00;;;;;;;2.40;0.60;;;20.30;46.10;;;;;;4950636;28;20479;-60
2021/12/08 08:00:35;;;;;;;2.28;0.77;;;20.30;46.10;;;;;;4973415;28;20564;-60
2021/12/08 08:03:02;;;;;;;1.30;0.63;;;20.30;46.10;;;;;;4956474;28;20514;-58
2021/12/08 08:05:29;;;;;;;2.58;0.80;;;20.30;46.10;;;;;;4976130;28;20050;-59
2021/12/08 08:07:56;;;;;;;1.45;0.60;;;20.30;46.10;;;;;;4950508;28;20560;-59
2021/12/08 08:10:23;;;;;;;3.30;0.70;;;20.30;46.10;;;;;;4974814;28;20054;-59
2021/12/08 08:12:51;;;;;;;1.65;0.90;;;20.30;46.10;;;;;;4971569;28;20046;-58
2021/12/08 08:15:24;;;;;;;1.17;0.60;;;20.30;46.20;;;;;;4951593;28;20552;-59
2021/12/08 08:17:53;;;;;;;1.77;0.85;;;20.30;46.10;;;;;;4974276;28;20089;-60
2021/12/08 08:20:28;;;;;;;3.75;0.95;;;20.40;46.20;;;;;;4952931;28;20063;-60
2021/12/08 08:22:55;;;;;;;1.70;0.60;;;20.40;46.20;;;;;;4971746;28;20097;-59
2021/12/08 08:25:23;;;;;;;2.42;1.10;;;20.40;46.30;;;;;;4953696;28;20055;-60
2021/12/08 08:27:50;;;;;;;0.93;0.70;;;20.40;46.10;;;;;;4972354;28;20042;-59
2021/12/08 08:30:22;;;;;;;1.27;0.77;;;20.40;46.10;;;;;;4954502;28;20046;-60
2021/12/08 08:32:51;;;;;;;2.53;0.70;;;20.40;46.10;;;;;;4973732;28;20078;-59
2021/12/08 08:35:34;;;;;;;1.80;0.60;;;20.40;46.10;;;;;;4955650;28;20058;-59
2021/12/08 08:38:05;;;;;;;1.48;0.82;;;20.40;46.10;;;;;;4975760;28;20043;-60
2021/12/08 08:40:37;;;;;;;2.13;0.88;;;20.40;46.20;;;;;;4947819;28;20046;-60
2021/12/08 08:43:03;;;;;;;1.63;0.60;;;20.40;46.20;;;;;;4976388;28;20057;-57
2021/12/08 08:45:46;;;;;;;1.58;0.77;;;20.40;46.10;;;;;;4953195;28;20070;-59
2021/12/08 08:48:18;;;;;;;1.67;0.80;;;20.40;46.10;;;;;;4973583;28;20490;-59
2021/12/08 08:50:49;;;;;;;2.63;0.90;;;20.40;46.10;;;;;;4954379;28;20042;-59
2021/12/08 08:53:17;;;;;;;1.73;0.70;;;20.40;46.10;;;;;;4971513;28;20450;-58
2021/12/08 08:55:51;;;;;;;4.07;0.80;;;20.50;46.10;;;;;;4958435;28;20097;-60
2021/12/08 08:58:21;;;;;;;2.33;0.80;;;20.50;46.20;;;;;;4983465;28;20057;-58
2021/12/08 09:00:58;;;;;;;1.63;0.70;;;20.50;46.20;;;;;;4952859;28;20951;-58
2021/12/08 09:03:29;;;;;;;2.15;0.95;;;20.50;46.10;;;;;;4952396;28;20177;-58
2021/12/08 09:06:03;;;;;;;1.20;0.77;;;20.50;46.20;;;;;;4953590;28;20045;-59
2021/12/08 09:08:30;;;;;;;1.55;0.70;;;20.50;46.30;;;;;;4970146;28;20125;-60
2021/12/08 09:11:06;;;;;;;3.25;0.65;;;20.50;46.40;;;;;;4951184;28;20085;-59
2021/12/08 09:13:39;;;;;;;1.85;0.85;;;20.50;46.40;;;;;;4975650;28;20049;-59
2021/12/08 09:16:15;;;;;;;2.10;0.82;;;20.50;46.40;;;;;;4950288;28;20050;-59
2021/12/08 09:19:02;;;;;;;4.03;0.90;;;20.50;46.50;;;;;;4972169;28;20149;-58
2021/12/08 09:21:37;;;;;;;2.75;1.02;;;20.50;46.60;;;;;;4948440;28;23718;-59
2021/12/08 09:24:09;;;;;;;1.15;0.73;;;20.50;46.70;;;;;;4971117;28;20159;-59
2021/12/08 09:26:41;;;;;;;4.75;1.17;;;20.50;46.80;;;;;;4953522;28;20108;-59
2021/12/08 09:29:17;;;;;;;2.95;1.17;;;20.50;46.80;;;;;;4972322;28;20049;-59
2021/12/08 09:32:23;;;;;;;2.45;1.00;;;20.50;46.80;;;;;;4954232;28;20131;-59
2021/12/08 09:34:54;;;;;;;2.97;0.82;;;20.60;47.10;;;;;;4960149;28;20483;-60
2021/12/08 09:37:21;;;;;;;;;;;20.60;47.00;;;;;;4952395;28;21481;-59
2021/12/08 09:40:00;;;;;;;2.70;1.20;;;20.50;47.20;;;;;;4957081;28;19961;-59
2021/12/08 09:42:43;;;;;;;2.55;0.98;;;20.50;47.10;;;;;;4950555;28;20097;-59
2021/12/08 09:45:27;;;;;;;2.85;0.82;;;20.60;47.00;;;;;;4965884;28;20050;-59
2021/12/08 09:47:53;;;;;;;2.55;1.20;;;20.60;47.10;;;;;;4951270;28;20046;-59
2021/12/08 09:50:19;;;;;;;2.20;0.90;;;20.60;47.00;;;;;;4950408;28;20050;-58
2021/12/08 09:52:46;;;;;;;2.63;0.98;;;20.60;47.00;;;;;;4949417;28;20157;-60
2021/12/08 09:55:15;;;;;;;3.15;1.00;;;20.60;47.00;;;;;;4969904;28;20046;-59
2021/12/08 09:57:42;;;;;;;4.35;1.00;;;20.60;47.00;;;;;;4970543;28;20097;-59
2021/12/08 10:00:15;;;;;;;1.88;1.10;;;20.60;47.00;;;;;;4962810;28;21224;-60
2021/12/08 10:02:41;;;;;;;2.17;0.90;;;20.60;46.90;;;;;;4971373;28;20050;-60
2021/12/08 10:05:15;;;;;;;3.25;0.90;;;20.60;46.90;;;;;;4951843;28;20050;-60
2021/12/08 10:07:42;;;;;;;2.00;0.90;;;20.70;46.90;;;;;;4969403;28;20563;-60
2021/12/08 10:10:11;;;;;;;3.65;0.90;;;20.60;46.80;;;;;;4951191;28;20050;-60
2021/12/08 10:12:37;;;;;;;2.13;0.70;;;20.60;46.80;;;;;;4969359;28;20042;-60
2021/12/08 10:15:06;;;;;;;2.47;1.00;;;20.70;46.90;;;;;;4950815;28;20979;-59
2021/12/08 10:17:33;;;;;;;2.65;1.10;;;20.70;46.80;;;;;;4967176;28;20410;-61
2021/12/08 10:20:10;;;;;;;2.42;0.90;;;20.60;46.90;;;;;;4952385;28;20058;-60
2021/12/08 10:22:36;;;;;;;1.92;1.00;;;20.70;46.80;;;;;;4968770;28;20065;-60
2021/12/08 10:25:14;;;;;;;2.28;1.15;;;20.70;46.80;;;;;;4952831;28;20043;-60
2021/12/08 10:28:09;;;;;;;3.97;1.00;;;20.70;46.90;;;;;;4969671;28;20042;-60
2021/12/08 10:30:45;;;;;;;3.50;1.00;;;20.70;46.70;;;;;;4952853;28;20054;-59
2021/12/08 10:33:37;;;;;;;2.60;0.70;;;20.70;46.80;;;;;;4957446;28;20050;-60
2021/12/08 10:36:19;;;;;;;2.35;0.90;;;20.70;46.80;;;;;;4954196;28;20694;-60
2021/12/08 10:38:44;;;;;;;2.42;0.73;;;20.70;46.80;;;;;;4973781;28;20050;-60
2021/12/08 10:41:10;;;;;;;1.55;0.85;;;20.70;46.70;;;;;;4955877;28;20054;-60
2021/12/08 10:43:36;;;;;;;2.63;0.85;;;20.70;46.70;;;;;;4971542;28;20050;-59
2021/12/08 10:46:10;;;;;;;1.48;0.90;;;20.70;46.70;;;;;;4947657;28;20129;-58
2021/12/08 10:48:43;;;;;;;4.05;1.15;;;20.70;46.70;;;;;;4975987;28;20068;-60
2021/12/08 10:54:26;;;;;;;4.00;1.10;;;20.70;46.80;;;;;;4972773;28;20565;-58
2021/12/08 10:56:56;;;;;;;2.38;1.02;;;20.70;46.90;;;;;;4952584;28;20453;-59
2021/12/08 10:59:48;;;;;;;4.15;1.00;;;20.70;46.80;;;;;;4971887;28;20713;-59
2021/12/08 11:02:42;;;;;;;3.28;1.30;;;20.70;46.90;;;;;;4952158;28;20093;-60
2021/12/08 11:05:37;;;;;;;2.90;0.98;;;20.70;46.80;;;;;;4975453;28;20046;-59
2021/12/08 11:08:21;;;;;;;4.25;1.10;;;20.70;46.90;;;;;;4950583;28;20078;-59
2021/12/08 11:10:49;;;;;;;1.90;1.00;;;20.70;46.90;;;;;;4973827;28;20513;-59
2021/12/08 11:13:17;;;;;;;2.63;1.10;;;20.70;46.90;;;;;;4955978;28;20050;-59
2021/12/08 11:15:44;;;;;;;2.90;0.95;;;20.70;46.90;;;;;;4971242;28;20051;-59
2021/12/08 11:18:21;;;;;;;3.05;1.52;;;20.70;47.00;;;;;;4970635;28;20070;-59
2021/12/08 11:20:54;;;;;;;2.63;0.90;;;20.70;46.90;;;;;;4975290;28;20061;-59
2021/12/08 11:23:44;;;;;;;3.90;1.17;;;20.70;47.00;;;;;;4956612;28;20847;-59
2021/12/08 11:26:26;;;;;;;5.32;1.17;;;20.70;47.10;;;;;;4974497;28;20038;-58
2021/12/08 11:29:00;;;;;;;2.72;0.90;;;20.70;47.30;;;;;;4949289;28;20050;-59
2021/12/08 11:31:32;;;;;;;3.38;1.10;;;20.70;47.40;;;;;;4975964;28;20072;-58
2021/12/08 11:34:04;;;;;;;3.60;0.90;;;20.70;47.40;;;;;;4952938;28;20485;-59
2021/12/08 11:36:36;;;;;;;2.92;1.08;;;20.70;47.50;;;;;;4973964;28;20042;-59
2021/12/08 11:39:11;;;;;;;5.18;0.95;;;20.70;47.50;;;;;;4952851;28;20078;-60
2021/12/08 11:41:53;;;;;;;2.95;1.00;;;20.70;47.60;;;;;;4972867;28;20351;-59
2021/12/08 11:44:24;;;;;;;2.15;1.25;;;20.80;47.70;;;;;;4951900;28;20093;-59
2021/12/08 11:47:02;;;;;;;3.28;1.15;;;20.80;47.70;;;;;;4972242;28;20482;-59
2021/12/08 11:49:28;;;;;;;2.45;1.17;;;20.70;47.70;;;;;;4951968;28;20039;-59
2021/12/08 11:51:59;;;;;;;3.88;1.30;;;20.80;47.70;;;;;;4973768;28;20905;-59
2021/12/08 11:54:38;;;;;;;3.00;1.20;;;20.70;47.70;;;;;;4954566;28;20492;-58
2021/12/08 11:57:20;;;;;;;4.22;1.45;;;20.70;47.70;;;;;;4970694;28;20076;-60
2021/12/08 11:59:45;;;;;;;2.95;1.20;;;20.70;47.70;;;;;;4954763;28;20467;-59
2021/12/08 12:02:14;;;;;;;3.95;1.67;;;20.70;47.70;;;;;;4976673;28;20030;-59
2021/12/08 12:04:41;;;;;;;2.22;1.30;;;20.70;47.60;;;;;;4955424;28;20779;-60
2021/12/08 12:07:10;;;;;;;2.92;1.05;;;20.70;47.60;;;;;;4967985;28;20046;-60
2021/12/08 12:09:36;;;;;;;3.38;0.98;;;20.80;47.60;;;;;;4954089;28;20057;-60
2021/12/08 12:12:02;;;;;;;3.10;1.00;;;20.70;47.50;;;;;;4971233;28;20038;-60
2021/12/08 12:14:28;;;;;;;3.13;1.23;;;20.70;47.50;;;;;;4952804;28;20080;-59
2021/12/08 12:16:54;;;;;;;3.13;1.20;;;20.70;47.50;;;;;;4973335;28;20063;-60
2021/12/08 12:19:22;;;;;;;3.72;1.13;;;20.70;47.50;;;;;;4970048;28;20061;-59
2021/12/08 12:22:16;;;;;;;2.40;1.45;;;20.80;47.50;;;;;;4954000;28;20057;-60
2021/12/08 12:25:03;;;;;;;2.85;1.08;;;20.80;47.70;;;;;;4962170;28;20038;-58
2021/12/08 12:27:43;;;;;;;2.22;1.02;;;20.70;48.30;;;;;;4975036;28;20055;-59
2021/12/08 12:30:16;;;;;;;6.22;1.10;;;20.70;47.80;;;;;;4951737;28;20133;-59
2021/12/08 12:32:48;;;;;;;2.60;1.10;;;20.70;47.80;;;;;;4972201;28;20054;-60
2021/12/08 12:35:21;;;;;;;3.00;1.50;;;20.70;47.70;;;;;;4956315;28;20057;-59
2021/12/08 12:37:50;;;;;;;2.55;1.17;;;20.70;47.60;;;;;;4971544;28;20098;-59
2021/12/08 12:40:31;;;;;;;2.13;1.00;;;20.70;47.70;;;;;;4971952;28;20046;-58
2021/12/08 12:42:59;;;;;;;4.30;1.50;;;20.70;47.60;;;;;;4970403;28;20054;-59
2021/12/08 12:45:33;;;;;;;4.53;1.20;;;20.70;47.60;;;;;;4974366;28;20088;-58
2021/12/08 12:48:11;;;;;;;4.13;1.25;;;20.70;47.70;;;;;;4953397;28;20053;-60
2021/12/08 12:51:01;;;;;;;3.72;1.17;;;20.70;47.80;;;;;;4971857;28;20046;-60
2021/12/08 12:53:40;;;;;;;4.75;1.33;;;20.70;48.00;;;;;;4968807;28;20069;-60
2021/12/08 12:56:36;;;;;;;4.25;1.50;;;20.70;48.00;;;;;;4964945;28;20101;-58
2021/12/08 12:59:15;;;;;;;5.93;1.65;;;20.70;48.30;;;;;;4964820;28;20465;-60
2021/12/08 13:01:46;;;;;;;4.55;1.40;;;20.70;48.60;;;;;;4950151;28;20648;-60
2021/12/08 13:04:24;;;;;;;4.82;1.40;;;20.70;48.90;;;;;;4969995;28;20039;-60
2021/12/08 13:06:59;;;;;;;5.70;1.85;;;20.70;49.00;;;;;;4951256;28;20664;-58
2021/12/08 13:09:48;;;;;;;5.95;1.60;;;20.70;49.10;;;;;;4973546;28;20540;-60
2021/12/08 13:12:16;;;;;;;5.20;2.05;;;20.70;49.20;;;;;;4949877;28;20620;-57
2021/12/08 13:14:43;;;;;;;4.63;1.48;;;20.70;49.20;;;;;;4971139;28;20058;-58
2021/12/08 13:17:22;;;;;;;8.88;1.45;;;20.70;49.10;;;;;;4943098;28;20051;-57
2021/12/08 13:19:56;;;;;;;2.58;1.30;;;20.70;49.10;;;;;;4950087;28;20070;-58
2021/12/08 13:22:48;;;;;;;4.60;1.60;;;20.70;49.00;;;;;;4970338;28;20043;-58
2021/12/08 13:25:38;;;;;;;5.30;2.00;;;20.80;49.10;;;;;;4967134;28;20046;-58
2021/12/08 13:28:25;;;;;;;3.88;1.52;;;20.70;49.00;;;;;;4958322;28;20130;-56
2021/12/08 13:30:56;;;;;;;5.22;1.40;;;20.70;49.00;;;;;;4970105;28;20088;-57
2021/12/08 13:33:25;;;;;;;3.95;1.30;;;20.70;49.00;;;;;;4954472;28;20117;-58
2021/12/08 13:35:53;;;;;;;3.58;1.50;;;20.70;49.00;;;;;;4971499;28;20050;-57
2021/12/08 13:38:19;;;;;;;5.00;1.50;;;20.70;48.90;;;;;;4972411;28;20061;-57
2021/12/08 13:40:50;;;;;;;3.28;1.58;;;20.70;48.90;;;;;;4945011;28;20052;-57
2021/12/08 13:43:39;;;;;;;3.40;1.63;;;20.70;48.80;;;;;;4972181;28;20117;-58
2021/12/08 13:46:07;;;;;;;4.15;1.50;;;20.70;48.70;;;;;;4955268;28;20038;-56
2021/12/08 13:48:34;;;;;;;3.67;1.40;;;20.70;48.70;;;;;;4968750;28;20627;-58
2021/12/08 13:51:21;;;;;;;4.75;1.60;;;20.70;48.60;;;;;;4953859;28;20442;-57
2021/12/08 13:54:24;;;;;;;3.25;1.50;;;20.70;48.60;;;;;;4969092;28;20074;-57
2021/12/08 13:56:51;;;;;;;4.55;2.25;;;20.70;48.60;;;;;;4951222;28;20490;-58